Flight Track Log - Related Links

Times and Time Zones

All times are in EDT time to prevent confusion due to time zone crossing. See the N287MC flight status page for this flight to view local times or setup timezone preferences in your user account.

Time Position Orientation Groundspeed Altitude Reporting Facility
EDT Latitude Longitude Course Direction KTS MPH feet Rate Location/Type
Sun 01:34:16 PM 36.0625 -115.1753 205° Southwest 192 221 3,400  Level Los Angeles Center
Sun 01:35:16 PM 36.0183 -115.2006 205° Southwest 176 203 6,100 2,625 Climbing Los Angeles Center
Sun 01:35:52 PM 35.9986 -115.2331 233° Southwest 192 221 7,600 2,571 Climbing Los Angeles Center
Sun 01:36:54 PM 35.9603 -115.2933 232° Southwest 226 260 10,300 2,613 Climbing Los Angeles Center
Sun 01:37:56 PM 35.9194 -115.2389 133° Southeast 239 275 13,000 2,323 Climbing Los Angeles Center
Sun 01:38:58 PM 35.9181 -115.1458 91° East 265 305 15,100 2,016 Climbing Los Angeles Center
Sun 01:40:01 PM 35.9186 -115.0411 90° East 290 334 17,200 2,064 Climbing Los Angeles Center
Sun 01:41:03 PM 35.9183 -114.9267 90° East 322 371 19,400 2,226 Climbing Los Angeles Center
Sun 01:42:05 PM 35.9203 -114.7831 89° East 348 400 21,800 2,081 Climbing Los Angeles Center
Sun 01:43:07 PM 35.9211 -114.6619 89° East 354 407 23,700 1,694 Climbing Los Angeles Center
Sun 01:44:09 PM 35.9239 -114.5375 88° East 362 417 25,300 1,548 Climbing Los Angeles Center
Sun 01:45:11 PM 35.9214 -114.4114 91° East 368 423 26,900 1,355 Climbing Los Angeles Center
Sun 01:46:13 PM 35.9217 -114.2828 90° East 372 428 28,100 1,258 Climbing Los Angeles Center
Sun 01:47:15 PM 35.9211 -114.1508 90° East 381 438 29,500 1,306 Climbing Los Angeles Center
Sun 01:48:17 PM 35.9219 -113.9883 90° East 391 450 30,800 1,152 Climbing Los Angeles Center
Sun 01:49:20 PM 35.9161 -113.8511 93° East 398 458 31,900 1,152 Climbing Los Angeles Center
Sun 01:50:22 PM 35.8842 -113.7217 107° East 393 452 33,200 1,113 Climbing Los Angeles Center
Sun 01:51:24 PM 35.8592 -113.5917 103° East 392 451 34,200 871 Climbing Los Angeles Center
Sun 01:52:26 PM 35.8306 -113.4431 103° East 397 457 35,000 823 Climbing Los Angeles Center
Sun 01:53:28 PM 35.8011 -113.3092 105° East 404 465 35,900 726 Climbing Los Angeles Center
Sun 01:54:30 PM 35.7733 -113.1758 104° East 404 465 36,500 629 Climbing Los Angeles Center
Sun 01:55:32 PM 35.7458 -113.0392 104° East 408 470 37,200 581 Climbing Los Angeles Center
Sun 01:56:34 PM 35.7158 -112.9022 105° East 412 474 37,700 677 Climbing Los Angeles Center
Sun 01:57:36 PM 35.6817 -112.7389 104° East 418 481 38,600 581 Climbing Los Angeles Center
Sun 01:58:38 PM 35.6506 -112.5961 105° East 422 486 38,900 435 Climbing Los Angeles Center
Sun 01:59:40 PM 35.6206 -112.4558 105° East 423 487 39,500 432 Climbing Los Angeles Center
Sun 02:00:43 PM 35.5836 -112.3175 108° East 427 491 39,800 384 Climbing Los Angeles Center
Sun 02:01:45 PM 35.5372 -112.1861 113° Southeast 420 483 40,300 387 Climbing Los Angeles Center
Sun 02:02:47 PM 35.4922 -112.0514 112° Southeast 426 490 40,600 242 Climbing Los Angeles Center
Sun 02:03:49 PM 35.4478 -111.9172 112° Southeast 426 490 40,800 194 Climbing Los Angeles Center
Sun 02:04:51 PM 35.3919 -111.7550 113° Southeast 432 497 41,000 98 Climbing Los Angeles Center
Sun 02:05:51 PM 35.3450 -111.6175 113° Southeast 434 499 41,000  Level Albuquerque Center
Sun 02:06:53 PM 35.2997 -111.4867 113° Southeast 443 510 41,000  Level Albuquerque Center
Sun 02:07:55 PM 35.2511 -111.3436 113° Southeast 451 519 41,000  Level Albuquerque Center
Sun 02:08:56 PM 35.2008 -111.2003 113° Southeast 455 524 41,000  Level Albuquerque Center
Sun 02:09:58 PM 35.1428 -111.0278 112° Southeast 458 527 41,000  Level Albuquerque Center
Sun 02:11:00 PM 35.0947 -110.8903 113° Southeast 459 528 41,000  Level Albuquerque Center
Sun 02:12:02 PM 35.0247 -110.7406 120° Southeast 457 526 41,000  Level Albuquerque Center
Sun 02:13:04 PM 34.9483 -110.6311 130° Southeast 446 513 41,000  Level Albuquerque Center
Sun 02:14:05 PM 34.8750 -110.5192 129° Southeast 443 510 41,000  Level Albuquerque Center
Sun 02:15:07 PM 34.7875 -110.3903 130° Southeast 443 510 41,000  Level Albuquerque Center
Sun 02:16:09 PM 34.7111 -110.2783 130° Southeast 447 514 41,000  Level Albuquerque Center
Sun 02:17:11 PM 34.6208 -110.1464 130° Southeast 451 519 41,000  Level Albuquerque Center
Sun 02:18:12 PM 34.5422 -110.0328 130° Southeast 456 525 41,000  Level Albuquerque Center
Sun 02:19:14 PM 34.4528 -109.9022 130° Southeast 454 522 41,000  Level Albuquerque Center
Sun 02:20:16 PM 34.3761 -109.7906 130° Southeast 452 520 41,000  Level Albuquerque Center
Sun 02:21:17 PM 34.2856 -109.6611 130° Southeast 452 520 41,000  Level Albuquerque Center
Sun 02:22:19 PM 34.2072 -109.5481 130° Southeast 456 525 41,000  Level Albuquerque Center
Sun 02:23:21 PM 34.1258 -109.4317 130° Southeast 455 524 41,000  Level Albuquerque Center
Sun 02:24:22 PM 34.0436 -109.3142 130° Southeast 456 525 41,000  Level Albuquerque Center
Sun 02:25:24 PM 33.9622 -109.1975 130° Southeast 456 525 41,000  Level Albuquerque Center
Sun 02:26:26 PM 33.8797 -109.0822 131° Southeast 455 524 41,000  Level Albuquerque Center
Sun 02:27:27 PM 33.7978 -108.9667 130° Southeast 454 522 41,000  Level Albuquerque Center
Sun 02:28:29 PM 33.6978 -108.8278 131° Southeast 456 525 41,000  Level Albuquerque Center
Sun 02:29:31 PM 33.6150 -108.7122 131° Southeast 456 525 41,000  Level Albuquerque Center
Sun 02:30:32 PM 33.5319 -108.5947 130° Southeast 458 527 41,000  Level Albuquerque Center
Sun 02:31:34 PM 33.4478 -108.4781 131° Southeast 460 529 41,000  Level Albuquerque Center
Sun 02:32:36 PM 33.3639 -108.3625 131° Southeast 459 528 41,000  Level Albuquerque Center
Sun 02:33:37 PM 33.2819 -108.2492 131° Southeast 453 521 41,000  Level Albuquerque Center
Sun 02:34:39 PM 33.1903 -108.1258 132° Southeast 451 519 41,000  Level Albuquerque Center
Sun 02:35:41 PM 33.1014 -108.0203 135° Southeast 451 519 41,000  Level Albuquerque Center
Sun 02:36:42 PM 33.0122 -107.9131 135° Southeast 454 522 41,000  Level Albuquerque Center
Sun 02:37:44 PM 32.9186 -107.8131 138° Southeast 453 521 41,000  Level Albuquerque Center
Sun 02:38:46 PM 32.8267 -107.7106 137° Southeast 454 522 41,000  Level Albuquerque Center
Sun 02:39:47 PM 32.7428 -107.5989 132° Southeast 455 524 41,000  Level Albuquerque Center
Sun 02:40:49 PM 32.6547 -107.4647 128° Southeast 459 528 41,000  Level Albuquerque Center
Sun 02:41:51 PM 32.5781 -107.3447 127° Southeast 458 527 41,000  Level Albuquerque Center
Sun 02:42:53 PM 32.5000 -107.2253 128° Southeast 458 527 41,000  Level Albuquerque Center
Sun 02:43:55 PM 32.4119 -107.0897 128° Southeast 455 524 41,000  Level Albuquerque Center
Sun 02:44:56 PM 32.3286 -106.9625 128° Southeast 454 522 41,000  Level Albuquerque Center
Sun 02:45:58 PM 32.2508 -106.8514 130° Southeast 453 521 41,000  Level Albuquerque Center
Sun 02:47:00 PM 32.1656 -106.7414 132° Southeast 454 522 41,000  Level Albuquerque Center
Sun 02:48:02 PM 32.0825 -106.6300 131° Southeast 454 522 41,000  Level Albuquerque Center
Sun 02:49:04 PM 31.9983 -106.5197 132° Southeast 453 521 41,000  Level Albuquerque Center
Sun 02:50:05 PM 31.8992 -106.3914 132° Southeast 457 526 41,000  Level Albuquerque Center
Sun 02:51:07 PM 31.8167 -106.2781 131° Southeast 460 529 41,000  Level Albuquerque Center
Sun 02:52:09 PM 31.7792 -106.1319 107° East 467 537 41,000  Level Albuquerque Center
Sun 02:53:11 PM 31.7436 -105.9908 106° East 452 520 41,000  Level Albuquerque Center
Sun 02:54:13 PM 31.7072 -105.8481 107° East 455 524 41,000  Level Albuquerque Center
Sun 02:55:14 PM 31.6722 -105.7042 106° East 458 527 41,000  Level Albuquerque Center
Sun 02:56:16 PM 31.6364 -105.5614 106° East 456 525 41,000  Level Albuquerque Center
Sun 02:57:18 PM 31.5925 -105.3894 107° East 458 527 41,000  Level Albuquerque Center
Sun 02:58:20 PM 31.5561 -105.2469 107° East 455 524 41,000  Level Albuquerque Center
Sun 02:59:22 PM 31.5200 -105.1031 106° East 456 525 41,000  Level Albuquerque Center
Sun 03:00:24 PM 31.4842 -104.9611 106° East 456 525 41,000  Level Albuquerque Center
Sun 03:01:25 PM 31.4467 -104.8192 107° East 453 521 41,000  Level Albuquerque Center
Sun 03:02:27 PM 31.4094 -104.6744 107° East 458 527 41,000  Level Albuquerque Center
Sun 03:03:29 PM 31.3717 -104.5317 107° East 458 527 41,000  Level Albuquerque Center
Sun 03:04:31 PM 31.3353 -104.3892 107° East 458 527 41,000  Level Albuquerque Center
Sun 03:05:33 PM 31.2906 -104.2183 107° East 457 526 41,000  Level Albuquerque Center
Sun 03:06:35 PM 31.2519 -104.0758 108° East 459 528 41,000  Level Albuquerque Center
Sun 03:07:37 PM 31.2136 -103.9347 108° East 456 525 41,000  Level Albuquerque Center
Sun 03:08:38 PM 31.1764 -103.7925 107° East 459 528 41,000  Level Albuquerque Center
Sun 03:09:40 PM 31.1294 -103.6319 109° East 460 529 41,000  Level Albuquerque Center
Sun 03:10:42 PM 31.0914 -103.4917 108° East 456 525 41,000  Level Albuquerque Center
Sun 03:11:44 PM 31.0522 -103.3503 108° East 458 527 41,000  Level Albuquerque Center
Sun 03:12:46 PM 31.0136 -103.2114 108° East 455 524 41,000  Level Albuquerque Center
Sun 03:13:48 PM 30.9761 -103.0725 107° East 453 521 41,000  Level Albuquerque Center
Sun 03:14:50 PM 30.9381 -102.9331 108° East 452 520 41,000  Level Albuquerque Center
Sun 03:15:51 PM 30.8931 -102.7644 107° East 455 524 41,000  Level Albuquerque Center
Sun 03:16:53 PM 30.8556 -102.6242 107° East 457 526 41,000  Level Albuquerque Center
Sun 03:17:55 PM 30.8167 -102.4842 108° East 459 528 41,000  Level Albuquerque Center
Sun 03:18:42 PM 30.7853 -102.3711 108° East 458 527 41,000  Level Houston Center
Sun 03:19:44 PM 30.7481 -102.2306 107° East 459 528 41,000  Level Houston Center
Sun 03:20:46 PM 30.7097 -102.0911 108° East 458 527 41,000  Level Houston Center
Sun 03:21:48 PM 30.6706 -101.9514 108° East 458 527 41,000  Level Houston Center
Sun 03:22:50 PM 30.6239 -101.7833 108° East 459 528 41,000  Level Houston Center
Sun 03:23:52 PM 30.5850 -101.6442 108° East 457 526 41,000  Level Houston Center
Sun 03:24:54 PM 30.5467 -101.5053 108° East 455 524 41,000  Level Houston Center
Sun 03:25:56 PM 30.5075 -101.3658 108° East 455 524 41,000  Level Houston Center
Sun 03:26:58 PM 30.4669 -101.2272 109° East 455 524 41,000  Level Houston Center
Sun 03:28:00 PM 30.4278 -101.0906 108° East 452 520 41,000  Level Houston Center
Sun 03:29:02 PM 30.3811 -100.9236 108° East 454 522 41,000  Level Houston Center
Sun 03:30:04 PM 30.3408 -100.7861 109° East 452 520 41,000  Level Houston Center
Sun 03:31:06 PM 30.3006 -100.6481 109° East 451 519 41,000  Level Houston Center
Sun 03:32:09 PM 30.2611 -100.5089 108° East 453 521 41,000  Level Houston Center
Sun 03:33:11 PM 30.2208 -100.3686 108° East 455 524 41,000  Level Houston Center
Sun 03:34:13 PM 30.1819 -100.2253 107° East 457 526 41,000  Level Houston Center
Sun 03:35:15 PM 30.1383 -100.0808 109° East 465 535 41,000  Level Houston Center
Sun 03:36:17 PM 30.0953 -99.9425 110° East 455 524 41,000  Level Houston Center
Sun 03:37:19 PM 30.0450 -99.7772 109° East 455 524 41,000  Level Houston Center
Sun 03:38:21 PM 30.0039 -99.6397 109° East 453 521 41,000  Level Houston Center
Sun 03:39:23 PM 29.9628 -99.5022 109° East 454 522 41,000  Level Houston Center
Sun 03:40:26 PM 29.9222 -99.3664 109° East 450 518 41,000 -384 Level Houston Center
Sun 03:41:28 PM 29.8808 -99.2289 109° East 456 525 40,200 -919 Descending Houston Center
Sun 03:42:30 PM 29.8311 -99.0653 109° East 462 532 39,100 -1,016 Descending Houston Center
Sun 03:43:32 PM 29.7878 -98.9267 110° East 460 529 38,100 -1,016 Descending Houston Center
Sun 03:44:34 PM 29.7419 -98.7772 109° East 460 529 37,000 -1,016 Descending Houston Center
Sun 03:45:36 PM 29.7003 -98.6400 109° East 454 522 36,000 -968 Descending Houston Center
Sun 03:46:38 PM 29.6581 -98.5017 109° East 456 525 35,000 -484 Descending Houston Center
Sun 03:47:40 PM 29.6106 -98.3444 109° East 477 549 35,000  Level Houston Center
Sun 03:48:42 PM 29.5636 -98.2092 112° Southeast 457 526 35,000  Level Houston Center
Sun 03:49:44 PM 29.5161 -98.0608 110° East 459 528 35,000 -240 Level Houston Center
Sun 03:50:47 PM 29.4711 -97.9233 111° Southeast 461 531 34,500 -720 Descending Houston Center
Sun 03:51:49 PM 29.4289 -97.7903 110° East 454 522 33,500 -968 Descending Houston Center
Sun 03:52:51 PM 29.3844 -97.6550 111° Southeast 455 524 32,500 -968 Descending Houston Center
Sun 03:53:53 PM 29.3403 -97.5194 110° East 456 525 31,500 -968 Descending Houston Center
Sun 03:54:55 PM 29.3056 -97.3825 106° East 465 535 30,500 -1,403 Descending Houston Center
Sun 03:55:57 PM 29.3058 -97.2119 90° East 451 519 28,600 -1,935 Descending Houston Center
Sun 03:56:59 PM 29.3064 -97.0736 90° East 439 505 26,500 -2,081 Descending Houston Center
Sun 03:58:01 PM 29.3056 -96.9358 90° East 436 502 24,300 -2,516 Descending Houston Center
Sun 03:59:03 PM 29.3058 -96.7844 90° East 428 493 21,300 -2,806 Descending Houston Center
Sun 04:00:05 PM 29.3056 -96.6558 90° East 415 478 18,500 -2,640 Descending Houston Center
Sun 04:01:08 PM 29.3053 -96.5328 90° East 397 457 15,800 -3,025 Descending Houston Center
Sun 04:02:04 PM 29.3044 -96.4164 90° East 370 426 12,500 -2,855 Descending Houston Center
Sun 04:03:12 PM 29.3056 -96.3108 89° East 345 397 9,900 -2,279 Descending Houston Center
Sun 04:04:13 PM 29.3503 -96.2125 62° Northeast 275 316 7,600 -2,115 Descending Houston Center
Sun 04:05:14 PM 29.3836 -96.1369 63° Northeast 264 304 5,600 -1,279 Descending Houston Center
Sun 04:06:15 PM 29.4211 -96.0608 60° Northeast 271 312 5,000 -295 Descending Houston Center
Sun 04:07:16 PM 29.4561 -95.9825 63° Northeast 272 313 5,000 -488 Level Houston Center
Sun 04:08:18 PM 29.4911 -95.9017 64° Northeast 269 310 4,000 -976 Descending Houston Center
Sun 04:09:19 PM 29.5264 -95.8256 62° Northeast 266 306 3,000 -787 Descending Houston Center
Sun 04:10:20 PM 29.5561 -95.7597 63° Northeast 217 250 2,400 -492 Descending Houston Center
Sun 04:11:21 PM 29.6097 -95.7247 30° Northeast 208 239 2,000 -393 Descending Houston Center
Sun 04:12:22 PM 29.6619 -95.7211 North 182 209 1,600 -273 Descending Houston Center
Sun 04:13:33 PM 29.6850 -95.6811 56° Northeast 169 194 1,400 -393 Descending Houston Center
Sun 04:14:24 PM 29.6650 -95.6606 138° Southeast 132 152 800 -532 Descending Houston Center
Sun 04:15:37 PM 29.6322 -95.6569 175° South 136 157 300 -411 Descending Houston Center

Login

Don't have an account? Register now (free) for customized features, flight alerts, and more!